createdAt,value
2023-04-09T00:00:28.783Z,79.69
2023-04-09T00:02:57.991Z,79.38
2023-04-09T00:05:25.750Z,79.28
2023-04-09T00:07:53.418Z,79.77
2023-04-09T00:10:21.240Z,79.26
2023-04-09T00:12:48.990Z,79.56
2023-04-09T00:15:27.746Z,79.42
2023-04-09T00:17:59.896Z,79.35
2023-04-09T00:20:27.752Z,79.20
2023-04-09T00:22:56.372Z,79.46
2023-04-09T00:25:24.235Z,79.12
2023-04-09T00:27:51.924Z,79.25
2023-04-09T00:30:19.561Z,79.39
2023-04-09T00:32:47.305Z,79.73
2023-04-09T00:35:19.764Z,79.75
2023-04-09T00:37:47.663Z,79.55
2023-04-09T00:40:15.442Z,79.52
2023-04-09T00:42:43.247Z,79.59
2023-04-09T00:45:11.622Z,79.43
2023-04-09T00:47:39.355Z,79.51
2023-04-09T00:50:07.842Z,79.22
2023-04-09T00:52:37.290Z,79.33
2023-04-09T00:55:06.518Z,79.26
2023-04-09T00:57:34.394Z,79.42
2023-04-09T01:00:02.598Z,79.20
2023-04-09T01:02:30.905Z,79.24
2023-04-09T01:04:58.811Z,79.04
2023-04-09T01:07:44.124Z,78.98
2023-04-09T01:10:18.571Z,79.56
2023-04-09T01:12:53.174Z,79.31
2023-04-09T01:15:25.006Z,78.62
2023-04-09T01:17:55.625Z,78.80
2023-04-09T01:20:31.942Z,79.29
2023-04-09T01:23:06.953Z,79.10
2023-04-09T01:25:45.553Z,79.33
2023-04-09T01:28:18.667Z,79.22
2023-04-09T01:30:50.356Z,79.61
2023-04-09T01:33:20.126Z,79.50
2023-04-09T01:35:48.785Z,79.18
2023-04-09T01:38:18.025Z,79.12
2023-04-09T01:40:45.677Z,78.81
2023-04-09T01:43:13.699Z,78.78
2023-04-09T01:45:43.274Z,78.92
2023-04-09T01:48:11.404Z,79.40
2023-04-09T01:50:39.334Z,79.40
2023-04-09T01:53:07.496Z,79.57
2023-04-09T01:55:35.388Z,79.37
2023-04-09T01:58:03.091Z,79.26
2023-04-09T02:00:34.050Z,78.82
2023-04-09T02:03:08.178Z,79.18
2023-04-09T02:05:39.128Z,78.94
2023-04-09T02:08:08.200Z,79.03
2023-04-09T02:10:36.844Z,79.18
2023-04-09T02:13:06.879Z,78.68
2023-04-09T02:15:36.422Z,78.49
2023-04-09T02:18:05.616Z,78.47
2023-04-09T02:20:33.284Z,78.00
2023-04-09T02:23:00.972Z,78.25
2023-04-09T02:25:28.776Z,77.91
2023-04-09T02:27:56.398Z,77.72
2023-04-09T02:30:24.205Z,77.56
2023-04-09T02:32:52.016Z,76.76
2023-04-09T02:35:21.050Z,76.44
2023-04-09T02:37:48.976Z,76.07
2023-04-09T02:40:16.628Z,75.74
2023-04-09T02:42:44.295Z,76.36
2023-04-09T02:45:12.379Z,76.25
2023-04-09T02:47:40.207Z,76.23
2023-04-09T02:50:09.125Z,76.32
2023-04-09T02:52:38.353Z,76.70
2023-04-09T02:55:06.876Z,76.07
2023-04-09T02:57:34.549Z,76.36
2023-04-09T03:00:02.561Z,76.52
2023-04-09T03:02:30.490Z,76.52
2023-04-09T03:04:58.315Z,76.19
2023-04-09T03:07:25.979Z,76.17
2023-04-09T03:09:55.142Z,75.86
2023-04-09T03:12:22.818Z,76.01
2023-04-09T03:14:50.429Z,76.23
2023-04-09T03:17:18.157Z,76.19
2023-04-09T03:19:45.866Z,75.80
2023-04-09T03:22:13.617Z,76.05
2023-04-09T03:24:41.240Z,75.55
2023-04-09T03:27:10.278Z,75.94
2023-04-09T03:29:37.969Z,76.11
2023-04-09T03:32:05.884Z,75.39
2023-04-09T03:34:33.564Z,74.95
2023-04-09T03:37:01.280Z,74.89
2023-04-09T03:39:30.777Z,74.87
2023-04-09T03:41:59.019Z,75.38
2023-04-09T03:44:28.108Z,75.27
2023-04-09T03:46:55.960Z,74.75
2023-04-09T03:49:23.690Z,74.67
2023-04-09T03:51:51.376Z,74.43
2023-04-09T03:54:19.062Z,74.24
2023-04-09T03:56:46.718Z,74.45
2023-04-09T03:59:14.448Z,74.39
2023-04-09T04:01:43.598Z,74.26
2023-04-09T04:04:11.966Z,74.53
2023-04-09T04:06:39.731Z,74.70
2023-04-09T04:09:07.333Z,74.42
2023-04-09T04:11:35.040Z,74.48
2023-04-09T04:14:02.765Z,74.84
2023-04-09T04:16:30.564Z,74.97
2023-04-09T04:18:59.755Z,74.86
2023-04-09T04:21:27.422Z,74.88
2023-04-09T04:23:55.071Z,75.21
2023-04-09T04:26:22.744Z,74.96
2023-04-09T04:28:50.766Z,75.11
2023-04-09T04:31:18.715Z,75.14
2023-04-09T04:33:46.388Z,75.32
2023-04-09T04:36:15.919Z,75.44
2023-04-09T04:38:43.730Z,75.47
2023-04-09T04:41:12.048Z,75.68
2023-04-09T04:43:41.404Z,75.91
2023-04-09T04:46:09.149Z,75.52
2023-04-09T04:48:36.823Z,75.71
2023-04-09T04:51:04.838Z,75.96
2023-04-09T04:53:33.861Z,75.87
2023-04-09T04:56:01.548Z,75.67
2023-04-09T04:58:30.464Z,75.58
2023-04-09T05:00:58.228Z,75.58
2023-04-09T05:03:27.465Z,75.47
2023-04-09T05:05:55.482Z,75.62
2023-04-09T05:08:23.201Z,75.89
2023-04-09T05:10:55.937Z,76.20
2023-04-09T05:13:23.832Z,76.15
2023-04-09T05:15:51.658Z,76.04
2023-04-09T05:18:19.579Z,76.45
2023-04-09T05:20:47.339Z,76.28
2023-04-09T05:23:15.033Z,76.27
2023-04-09T05:25:42.796Z,76.44
2023-04-09T05:28:12.215Z,76.31
2023-04-09T05:30:39.906Z,76.31
2023-04-09T05:33:07.628Z,76.18
2023-04-09T05:35:35.297Z,76.19
2023-04-09T05:38:03.059Z,76.24
2023-04-09T05:40:30.778Z,76.22
2023-04-09T05:42:58.540Z,76.05
2023-04-09T05:45:28.608Z,76.50
2023-04-09T05:47:56.679Z,76.44
2023-04-09T05:50:24.777Z,76.61
2023-04-09T05:52:52.473Z,76.64
2023-04-09T05:55:20.406Z,77.07
2023-04-09T05:57:48.268Z,77.03
2023-04-09T06:00:18.338Z,76.91
2023-04-09T06:02:47.565Z,77.05
2023-04-09T06:05:15.475Z,77.27
2023-04-09T06:07:43.159Z,77.48
2023-04-09T06:10:10.954Z,77.49
2023-04-09T06:12:38.706Z,77.58
2023-04-09T06:15:07.341Z,77.63
2023-04-09T06:17:35.186Z,77.64
2023-04-09T06:20:04.777Z,77.60
2023-04-09T06:22:32.443Z,77.53
2023-04-09T06:25:00.169Z,78.14
2023-04-09T06:27:27.854Z,77.90
2023-04-09T06:29:55.637Z,77.78
2023-04-09T06:32:23.441Z,78.49
2023-04-09T06:34:51.275Z,78.10
2023-04-09T06:37:20.591Z,77.53
2023-04-09T06:40:00.537Z,78.21
2023-04-09T06:42:29.218Z,77.86
2023-04-09T06:44:56.970Z,77.46
2023-04-09T06:47:24.842Z,76.96
2023-04-09T06:49:52.637Z,76.95
2023-04-09T06:52:21.703Z,76.58
2023-04-09T06:54:49.432Z,77.39
2023-04-09T06:57:17.141Z,77.36
2023-04-09T06:59:45.188Z,77.15
2023-04-09T07:02:13.107Z,76.83
2023-04-09T07:04:41.441Z,77.29
2023-04-09T07:07:09.504Z,76.37
2023-04-09T07:09:38.567Z,76.62
2023-04-09T07:12:06.501Z,76.40
2023-04-09T07:14:34.324Z,76.50
2023-04-09T07:17:02.063Z,77.48
2023-04-09T07:19:29.874Z,77.50
2023-04-09T07:21:57.594Z,76.97
2023-04-09T07:24:25.274Z,76.76
2023-04-09T07:26:54.536Z,76.96
2023-04-09T07:29:22.400Z,76.95
2023-04-09T07:31:50.267Z,76.79
2023-04-09T07:34:18.136Z,76.86
2023-04-09T07:36:45.889Z,76.08
2023-04-09T07:39:13.587Z,75.76
2023-04-09T07:41:41.654Z,76.55
2023-04-09T07:44:11.254Z,76.08
2023-04-09T07:46:39.915Z,75.44
2023-04-09T07:49:07.689Z,75.79
2023-04-09T07:51:35.417Z,75.70
2023-04-09T07:54:03.659Z,74.31
2023-04-09T07:56:31.391Z,75.11
2023-04-09T07:58:59.165Z,75.31
2023-04-09T08:01:28.278Z,75.84
2023-04-09T08:03:56.128Z,74.03
2023-04-09T08:06:24.056Z,73.35
2023-04-09T08:08:52.037Z,73.91
2023-04-09T08:11:25.171Z,74.52
2023-04-09T08:13:53.056Z,74.44
2023-04-09T08:16:23.611Z,74.12
2023-04-09T08:18:53.074Z,73.84
2023-04-09T08:21:21.218Z,72.41
2023-04-09T08:23:51.367Z,72.92
2023-04-09T08:26:19.222Z,72.84
2023-04-09T08:28:46.935Z,72.09
2023-04-09T08:31:16.791Z,72.27
2023-04-09T08:33:44.557Z,71.53
2023-04-09T08:36:13.906Z,71.23
2023-04-09T08:38:42.051Z,70.83
2023-04-09T08:41:09.813Z,70.13
2023-04-09T08:43:56.166Z,69.79
2023-04-09T08:46:26.096Z,67.98
2023-04-09T08:48:56.389Z,68.53
2023-04-09T08:51:25.795Z,67.28
2023-04-09T08:53:56.926Z,67.42
2023-04-09T08:56:24.890Z,66.58
2023-04-09T08:58:53.401Z,65.93
2023-04-09T09:01:22.658Z,68.02
2023-04-09T09:03:59.170Z,65.33
2023-04-09T09:06:33.434Z,64.62
2023-04-09T09:09:06.124Z,64.90
2023-04-09T09:11:34.358Z,64.41
2023-04-09T09:14:03.664Z,64.80
2023-04-09T09:16:34.896Z,63.87
2023-04-09T09:19:03.211Z,63.19
2023-04-09T09:21:33.325Z,61.89
2023-04-09T09:24:01.116Z,60.83
2023-04-09T09:26:30.039Z,61.73
2023-04-09T09:28:59.410Z,63.24
2023-04-09T09:31:27.594Z,61.40
2023-04-09T09:33:55.454Z,62.37
2023-04-09T09:36:34.601Z,61.04
2023-04-09T09:39:10.118Z,61.11
2023-04-09T09:41:38.403Z,63.03
2023-04-09T09:44:07.308Z,61.51
2023-04-09T09:46:36.963Z,61.86
2023-04-09T09:49:04.772Z,60.94
2023-04-09T09:51:36.875Z,58.38
2023-04-09T09:54:04.980Z,59.15
2023-04-09T09:56:37.128Z,56.24
2023-04-09T09:59:08.877Z,57.03
2023-04-09T10:01:37.286Z,57.04
2023-04-09T10:04:07.238Z,55.96
2023-04-09T10:06:37.229Z,54.85
2023-04-09T10:09:06.344Z,54.97
2023-04-09T10:11:34.980Z,56.12
2023-04-09T10:14:03.558Z,55.22
2023-04-09T10:16:32.054Z,55.33
2023-04-09T10:19:00.524Z,54.90
2023-04-09T10:21:36.662Z,53.54
2023-04-09T10:24:08.074Z,53.54
2023-04-09T10:26:37.180Z,55.17
2023-04-09T10:29:08.228Z,53.41
2023-04-09T10:31:57.267Z,53.57
2023-04-09T10:34:28.014Z,51.99
2023-04-09T10:36:59.731Z,52.14
2023-04-09T10:39:30.330Z,52.87
2023-04-09T10:41:59.553Z,51.65
2023-04-09T10:44:28.622Z,50.60
2023-04-09T10:46:56.958Z,49.47
2023-04-09T10:49:26.196Z,49.35
2023-04-09T10:51:54.333Z,49.64
2023-04-09T10:54:47.012Z,50.86
2023-04-09T10:57:17.901Z,50.65
2023-04-09T10:59:47.151Z,48.99
2023-04-09T11:02:53.196Z,48.48
2023-04-09T11:05:26.522Z,48.41
2023-04-09T11:07:57.049Z,47.93
2023-04-09T11:10:26.796Z,47.43
2023-04-09T11:12:54.857Z,47.40
2023-04-09T11:15:22.788Z,47.64
2023-04-09T11:17:51.514Z,47.55
2023-04-09T11:20:22.063Z,46.93
2023-04-09T11:22:51.216Z,47.02
2023-04-09T11:25:21.766Z,46.52
2023-04-09T11:27:52.071Z,45.08
2023-04-09T11:30:20.785Z,46.74
2023-04-09T11:33:20.320Z,45.38
2023-04-09T11:35:48.828Z,46.10
2023-04-09T11:38:24.360Z,44.06
2023-04-09T11:40:52.593Z,45.04
2023-04-09T11:43:23.983Z,44.17
2023-04-09T11:45:51.794Z,45.94
2023-04-09T11:48:21.641Z,45.14
2023-04-09T11:50:49.402Z,44.87
2023-04-09T11:53:18.561Z,44.89
2023-04-09T11:55:48.673Z,43.70
2023-04-09T11:58:16.656Z,43.84
2023-04-09T12:05:51.314Z,44.68
2023-04-09T12:08:23.993Z,46.26
2023-04-09T12:10:53.671Z,45.17
2023-04-09T12:13:21.911Z,43.92
2023-04-09T12:15:50.543Z,44.46
2023-04-09T12:18:18.229Z,44.80
2023-04-09T12:20:49.742Z,45.74
2023-04-09T12:23:17.753Z,46.64
2023-04-09T12:25:47.640Z,44.46
2023-04-09T12:28:18.247Z,43.65
2023-04-09T12:30:46.404Z,44.06
2023-04-09T12:33:14.148Z,43.64
2023-04-09T12:35:42.043Z,44.09
2023-04-09T12:38:11.186Z,45.03
2023-04-09T12:40:39.092Z,44.24
2023-04-09T12:43:07.072Z,43.87
2023-04-09T12:45:34.819Z,44.32
2023-04-09T12:48:02.625Z,44.36
2023-04-09T12:50:30.736Z,44.55
2023-04-09T12:52:58.427Z,45.21
2023-04-09T12:55:27.915Z,43.28
2023-04-09T12:57:55.619Z,43.60
2023-04-09T13:00:23.278Z,42.08
2023-04-09T13:02:52.590Z,43.76
2023-04-09T13:05:20.623Z,43.37
2023-04-09T13:07:48.273Z,43.06
2023-04-09T13:10:16.191Z,43.45
2023-04-09T13:12:45.439Z,43.29
2023-04-09T13:15:13.237Z,43.59
2023-04-09T13:17:41.020Z,43.09
2023-04-09T13:20:09.988Z,43.15
2023-04-09T13:22:37.668Z,43.82
2023-04-09T13:25:07.295Z,43.01
2023-04-09T13:27:34.918Z,44.05
2023-04-09T13:30:04.570Z,44.04
2023-04-09T13:32:32.336Z,43.03
2023-04-09T13:35:00.187Z,44.01
2023-04-09T13:37:27.966Z,43.44
2023-04-09T13:39:56.244Z,44.45
2023-04-09T13:42:23.923Z,43.41
2023-04-09T13:44:51.618Z,44.64
2023-04-09T13:47:21.228Z,42.47
2023-04-09T13:49:51.394Z,43.37
2023-04-09T13:52:19.110Z,42.50
2023-04-09T13:54:46.835Z,43.29
2023-04-09T13:57:14.536Z,43.72
2023-04-09T13:59:42.702Z,43.65
2023-04-09T14:02:10.496Z,43.75
2023-04-09T14:04:39.941Z,43.63
2023-04-09T14:07:08.431Z,44.11
2023-04-09T14:09:36.425Z,43.12
2023-04-09T14:12:04.216Z,42.74
2023-04-09T14:14:31.876Z,43.12
2023-04-09T14:16:59.622Z,42.23
2023-04-09T14:19:27.307Z,42.67
2023-04-09T14:21:56.518Z,42.70
2023-04-09T14:24:24.179Z,43.42
2023-04-09T14:26:53.460Z,42.28
2023-04-09T14:29:22.108Z,42.42
2023-04-09T14:31:49.990Z,42.17
2023-04-09T14:34:17.753Z,42.37
2023-04-09T14:36:45.467Z,43.08
2023-04-09T14:39:14.612Z,43.23
2023-04-09T14:41:42.471Z,43.18
2023-04-09T14:44:10.276Z,42.66
2023-04-09T14:46:38.102Z,42.38
2023-04-09T14:49:05.826Z,42.40
2023-04-09T14:51:33.655Z,42.28
2023-04-09T14:54:01.602Z,41.86
2023-04-09T14:56:30.761Z,41.78
2023-04-09T14:58:58.625Z,40.98
2023-04-09T15:01:27.163Z,41.73
2023-04-09T15:03:55.329Z,41.45
2023-04-09T15:06:23.452Z,42.24
2023-04-09T15:08:51.421Z,41.79
2023-04-09T15:11:22.875Z,41.18
2023-04-09T15:13:52.551Z,41.16
2023-04-09T15:16:25.881Z,42.46
2023-04-09T15:18:55.725Z,41.97
2023-04-09T15:21:23.755Z,41.81
2023-04-09T15:23:53.109Z,41.97
2023-04-09T15:26:21.373Z,41.99
2023-04-09T15:28:49.307Z,41.50
2023-04-09T15:31:18.473Z,42.44
2023-04-09T15:33:47.078Z,42.32
2023-04-09T15:36:14.877Z,41.74
2023-04-09T15:38:42.654Z,42.16
2023-04-09T15:41:10.623Z,42.78
2023-04-09T15:43:38.338Z,42.76
2023-04-09T15:46:10.797Z,42.45
2023-04-09T15:48:40.043Z,43.15
2023-04-09T15:51:08.044Z,42.54
2023-04-09T15:53:35.876Z,42.32
2023-04-09T15:56:03.828Z,42.62
2023-04-09T15:58:31.531Z,41.77
2023-04-09T16:00:59.328Z,42.46
2023-04-09T16:03:27.757Z,41.52
2023-04-09T16:05:56.835Z,42.77
2023-04-09T16:08:24.582Z,41.36
2023-04-09T16:10:53.230Z,41.41
2023-04-09T16:13:20.840Z,42.01
2023-04-09T16:15:49.371Z,42.13
2023-04-09T16:18:17.223Z,41.23
2023-04-09T16:20:44.954Z,40.97
2023-04-09T16:23:14.176Z,41.52
2023-04-09T16:25:41.903Z,41.44
2023-04-09T16:28:09.755Z,41.96
2023-04-09T16:30:37.756Z,41.75
2023-04-09T16:33:05.398Z,42.81
2023-04-09T16:35:33.119Z,42.23
2023-04-09T16:38:00.926Z,42.24
2023-04-09T16:40:30.333Z,41.86
2023-04-09T16:42:58.008Z,42.48
2023-04-09T16:45:25.893Z,41.48
2023-04-09T16:47:54.529Z,42.59
2023-04-09T16:50:22.454Z,43.05
2023-04-09T16:52:50.330Z,42.68
2023-04-09T16:55:18.050Z,42.70
2023-04-09T16:57:47.315Z,42.29
2023-04-09T17:00:17.450Z,42.64
2023-04-09T17:02:45.937Z,42.09
2023-04-09T17:05:13.985Z,42.51
2023-04-09T17:07:43.158Z,42.53
2023-04-09T17:10:11.471Z,42.10
2023-04-09T17:12:39.750Z,42.10
2023-04-09T17:15:10.564Z,42.67
2023-04-09T17:17:38.392Z,43.08
2023-04-09T17:20:07.460Z,42.84
2023-04-09T17:22:35.644Z,43.43
2023-04-09T17:25:04.758Z,43.17
2023-04-09T17:27:32.492Z,43.40
2023-04-09T17:30:00.277Z,43.14
2023-04-09T17:32:29.584Z,43.82
2023-04-09T17:34:57.341Z,43.80
2023-04-09T17:37:25.240Z,43.98
2023-04-09T17:39:52.948Z,44.13
2023-04-09T17:42:22.021Z,44.34
2023-04-09T17:44:49.710Z,44.56
2023-04-09T17:47:17.864Z,44.99
2023-04-09T17:49:47.025Z,44.95
2023-04-09T17:52:14.718Z,44.59
2023-04-09T17:54:45.528Z,44.32
2023-04-09T17:57:13.448Z,44.72
2023-04-09T17:59:41.132Z,44.92
2023-04-09T18:02:09.156Z,45.63
2023-04-09T18:04:37.276Z,45.01
2023-04-09T18:07:06.677Z,44.74
2023-04-09T18:09:34.678Z,45.10
2023-04-09T18:12:02.835Z,44.92
2023-04-09T18:14:32.460Z,44.77
2023-04-09T18:17:01.070Z,45.55
2023-04-09T18:19:28.841Z,44.93
2023-04-09T18:21:56.570Z,45.49
2023-04-09T18:24:26.357Z,45.57
2023-04-09T18:26:54.109Z,45.31
2023-04-09T18:29:21.836Z,45.57
2023-04-09T18:31:49.637Z,45.57
2023-04-09T18:34:17.375Z,46.01
2023-04-09T18:36:45.036Z,45.73
2023-04-09T18:39:12.738Z,45.64
2023-04-09T18:41:41.836Z,46.02
2023-04-09T18:44:09.667Z,46.03
2023-04-09T18:46:37.418Z,46.50
2023-04-09T18:49:05.137Z,46.28
2023-04-09T18:51:32.894Z,46.09
2023-04-09T18:54:01.190Z,46.52
2023-04-09T18:56:29.855Z,46.33
2023-04-09T18:58:59.056Z,46.73
2023-04-09T19:01:26.773Z,46.71
2023-04-09T19:03:54.776Z,46.72
2023-04-09T19:06:23.335Z,46.92
2023-04-09T19:08:57.044Z,46.85
2023-04-09T19:11:24.955Z,47.36
2023-04-09T19:13:52.729Z,47.15
2023-04-09T19:16:22.074Z,46.99
2023-04-09T19:18:49.974Z,47.41
2023-04-09T19:21:18.595Z,47.33
2023-04-09T19:23:46.922Z,47.70
2023-04-09T19:26:14.768Z,47.62
2023-04-09T19:28:42.404Z,47.90
2023-04-09T19:31:12.623Z,47.44
2023-04-09T19:33:41.882Z,47.65
2023-04-09T19:36:09.580Z,47.88
2023-04-09T19:38:37.304Z,47.42
2023-04-09T19:41:05.353Z,47.95
2023-04-09T19:43:33.033Z,48.12
2023-04-09T19:46:00.813Z,48.35
2023-04-09T19:48:28.480Z,48.34
2023-04-09T19:50:57.617Z,48.60
2023-04-09T19:53:25.342Z,48.32
2023-04-09T19:55:53.180Z,48.52
2023-04-09T19:58:20.887Z,48.45
2023-04-09T20:00:48.627Z,48.96
2023-04-09T20:03:16.545Z,48.70
2023-04-09T20:05:44.307Z,48.86
2023-04-09T20:08:15.737Z,48.98
2023-04-09T20:10:46.376Z,48.80
2023-04-09T20:13:14.183Z,48.94
2023-04-09T20:15:41.872Z,49.87
2023-04-09T20:18:09.612Z,49.14
2023-04-09T20:20:37.333Z,48.94
2023-04-09T20:23:05.026Z,49.70
2023-04-09T20:25:36.628Z,49.50
2023-04-09T20:28:04.792Z,49.42
2023-04-09T20:30:32.925Z,49.47
2023-04-09T20:33:01.356Z,49.90
2023-04-09T20:35:29.218Z,49.90
2023-04-09T20:37:57.015Z,49.70
2023-04-09T20:40:25.110Z,49.98
2023-04-09T20:42:54.159Z,49.83
2023-04-09T20:45:21.833Z,50.11
2023-04-09T20:47:50.712Z,50.00
2023-04-09T20:50:19.498Z,50.00
2023-04-09T20:52:47.537Z,50.19
2023-04-09T20:55:15.342Z,49.90
2023-04-09T20:57:43.854Z,50.17
2023-04-09T21:00:14.195Z,50.02
2023-04-09T21:02:42.341Z,50.46
2023-04-09T21:05:22.025Z,50.43
2023-04-09T21:07:51.878Z,50.86
2023-04-09T21:10:19.597Z,50.53
2023-04-09T21:12:47.304Z,50.35
2023-04-09T21:15:16.755Z,50.83
2023-04-09T21:17:44.459Z,50.95
2023-04-09T21:20:12.623Z,51.01
2023-04-09T21:22:40.416Z,50.86
2023-04-09T21:25:08.785Z,51.06
2023-04-09T21:27:36.425Z,51.06
2023-04-09T21:30:04.637Z,50.89
2023-04-09T21:32:33.655Z,51.20
2023-04-09T21:35:01.350Z,50.75
2023-04-09T21:37:29.904Z,50.81
2023-04-09T21:39:57.646Z,50.96
2023-04-09T21:42:25.538Z,50.84
2023-04-09T21:44:53.322Z,51.12
2023-04-09T21:47:21.093Z,51.08
2023-04-09T21:49:50.324Z,51.52
2023-04-09T21:52:18.035Z,51.59
2023-04-09T21:54:45.774Z,51.53
2023-04-09T21:57:13.621Z,51.52
2023-04-09T21:59:42.334Z,51.30
2023-04-09T22:02:10.392Z,51.43
2023-04-09T22:04:38.209Z,51.08
2023-04-09T22:07:07.361Z,51.24
2023-04-09T22:09:35.064Z,51.24
2023-04-09T22:12:03.300Z,51.69
2023-04-09T22:14:32.469Z,51.71
2023-04-09T22:17:01.669Z,51.49
2023-04-09T22:19:30.926Z,51.58
2023-04-09T22:21:59.102Z,50.88
2023-04-09T22:24:30.006Z,51.33
2023-04-09T22:26:58.828Z,51.17
2023-04-09T22:29:26.910Z,51.07
2023-04-09T22:31:54.574Z,51.31
2023-04-09T22:34:22.510Z,50.99
2023-04-09T22:36:50.752Z,51.05
2023-04-09T22:39:18.727Z,51.19
2023-04-09T22:41:47.821Z,51.06
2023-04-09T22:44:15.551Z,50.84
2023-04-09T22:46:43.293Z,50.87
2023-04-09T22:49:11.587Z,50.93
2023-04-09T22:51:41.559Z,51.09
2023-04-09T22:54:09.624Z,51.11
2023-04-09T22:56:37.748Z,51.02
2023-04-09T22:59:07.295Z,51.14
2023-04-09T23:01:35.522Z,51.23
2023-04-09T23:04:03.405Z,51.46
2023-04-09T23:06:32.006Z,51.39
2023-04-09T23:09:00.040Z,51.49
2023-04-09T23:11:28.256Z,51.37
2023-04-09T23:13:56.094Z,51.60
2023-04-09T23:16:26.305Z,51.48
2023-04-09T23:18:54.498Z,51.52
2023-04-09T23:21:22.354Z,51.48
2023-04-09T23:23:50.029Z,51.52
2023-04-09T23:26:17.671Z,51.74
2023-04-09T23:28:45.655Z,51.50
2023-04-09T23:31:13.331Z,51.79
2023-04-09T23:33:42.518Z,51.54
2023-04-09T23:36:10.799Z,51.57
2023-04-09T23:38:40.324Z,51.97
2023-04-09T23:41:08.154Z,51.47
2023-04-09T23:43:35.992Z,51.85
2023-04-09T23:46:03.684Z,51.93
2023-04-09T23:48:31.334Z,51.69
2023-04-09T23:51:00.396Z,51.30
2023-04-09T23:53:28.087Z,51.82
2023-04-09T23:55:55.840Z,51.54
2023-04-09T23:58:23.577Z,51.51
